Time;durP1;ratioP1;P1;durP2;ratioP2;P2;SDS_P1;SDS_P2;PMS_P1;PMS_P2;Temp;Humidity;BMP_temperature;BMP_pressure;BME280_temperature;BME280_humidity;BME280_pressure;Samples;Min_cycle;Max_cycle;Signal;HPM_P1;HPM_P2
2022/09/01 00:02:27;;;;;;;14.25;7.42;;;;;;;;;;1755921;81;21095;-59
2022/09/01 00:04:57;;;;;;;10.05;7.67;;;;;;;;;;1736734;81;21032;-59
2022/09/01 00:07:33;;;;;;;13.13;7.75;;;;;;;;;;1753742;81;21005;-59
2022/09/01 00:10:03;;;;;;;11.08;8.48;;;;;;;;;;1762359;80;21040;-59
2022/09/01 00:12:30;;;;;;;14.83;8.88;;;;;;;;;;1761715;80;21020;-60
2022/09/01 00:14:58;;;;;;;13.78;8.75;;;;;;;;;;1758099;80;21080;-60
2022/09/01 00:17:25;;;;;;;11.08;8.30;;;;;;;;;;1763193;81;21028;-59
2022/09/01 00:19:52;;;;;;;10.32;8.03;;;;;;;;;;1754558;81;21083;-59
2022/09/01 00:22:18;;;;;;;11.70;8.90;;;;;;;;;;1736856;82;21517;-59
2022/09/01 00:24:45;;;;;;;14.93;8.90;;;;;;;;;;1758540;81;21075;-60
2022/09/01 00:27:12;;;;;;;13.90;9.18;;;;;;;;;;1759308;81;21084;-60
2022/09/01 00:29:39;;;;;;;14.35;9.60;;;;;;;;;;1764542;80;21040;-60
2022/09/01 00:32:06;;;;;;;14.18;9.35;;;;;;;;;;1763683;81;21052;-59
2022/09/01 00:34:34;;;;;;;13.90;9.08;;;;;;;;;;1771179;81;21017;-59
2022/09/01 00:37:00;;;;;;;12.13;9.03;;;;;;;;;;1761909;81;21041;-60
2022/09/01 00:39:27;;;;;;;12.23;8.85;;;;;;;;;;1761587;81;21079;-60
2022/09/01 00:41:54;;;;;;;14.23;8.60;;;;;;;;;;1771569;80;21043;-60
2022/09/01 00:44:26;;;;;;;12.05;8.28;;;;;;;;;;1766592;80;21012;-60
2022/09/01 00:46:51;;;;;;;11.18;8.08;;;;;;;;;;1742496;82;21063;-59
2022/09/01 00:49:39;;;;;;;14.53;7.28;;;;;;;;;;1746510;81;21017;-60
2022/09/01 00:52:12;;;;;;;14.58;7.55;;;;;;;;;;1752215;81;21044;-59
2022/09/01 00:54:42;;;;;;;10.20;7.03;;;;;;;;;;1751449;81;21025;-61
2022/09/01 00:57:11;;;;;;;10.05;6.87;;;;;;;;;;1747268;81;21020;-61
2022/09/01 00:59:41;;;;;;;12.90;6.80;;;;;;;;;;1765591;80;21106;-59
2022/09/01 01:02:09;;;;;;;12.37;7.50;;;;;;;;;;1745373;81;21028;-59
2022/09/01 01:04:37;;;;;;;15.83;9.03;;;;;;;;;;1745904;81;21083;-60
2022/09/01 01:07:05;;;;;;;14.00;9.45;;;;;;;;;;1741523;81;21027;-59
2022/09/01 01:09:38;;;;;;;16.25;9.40;;;;;;;;;;1750815;81;21024;-60
2022/09/01 01:12:06;;;;;;;13.55;9.58;;;;;;;;;;1760411;81;21223;-60
2022/09/01 01:14:35;;;;;;;13.98;8.70;;;;;;;;;;1755384;81;21070;-59
2022/09/01 01:17:03;;;;;;;12.65;8.83;;;;;;;;;;1756200;81;21043;-60
2022/09/01 01:23:04;;;;;;;14.43;9.05;;;;;;;;;;1748297;80;21059;-59
2022/09/01 01:25:52;;;;;;;13.40;8.50;;;;;;;;;;1746052;81;21048;-60
2022/09/01 01:28:29;;;;;;;17.05;8.85;;;;;;;;;;1766862;81;21067;-60
2022/09/01 01:31:00;;;;;;;12.20;8.78;;;;;;;;;;1761437;80;21200;-60
2022/09/01 01:33:31;;;;;;;14.03;9.25;;;;;;;;;;1761594;81;20988;-61
2022/09/01 01:35:58;;;;;;;13.08;8.88;;;;;;;;;;1760303;80;21032;-60
2022/09/01 01:38:28;;;;;;;12.95;8.73;;;;;;;;;;1759314;80;21055;-59
2022/09/01 01:40:56;;;;;;;14.95;8.30;;;;;;;;;;1750977;81;21037;-60
2022/09/01 01:43:25;;;;;;;13.48;8.53;;;;;;;;;;1746078;81;21078;-60
2022/09/01 01:45:55;;;;;;;12.35;8.88;;;;;;;;;;1751158;81;21000;-60
2022/09/01 01:48:24;;;;;;;14.80;8.83;;;;;;;;;;1760455;80;21473;-60
2022/09/01 01:50:53;;;;;;;13.25;9.60;;;;;;;;;;1743089;81;21051;-60
2022/09/01 01:53:21;;;;;;;12.63;8.48;;;;;;;;;;1744342;81;20996;-60
2022/09/01 01:55:48;;;;;;;12.23;8.73;;;;;;;;;;1750949;81;21088;-60
2022/09/01 01:58:20;;;;;;;13.78;9.08;;;;;;;;;;1760505;81;21532;-60
2022/09/01 02:00:49;;;;;;;13.38;9.00;;;;;;;;;;1763653;81;21068;-60
2022/09/01 02:03:20;;;;;;;16.57;9.98;;;;;;;;;;1753811;81;21044;-60
2022/09/01 02:05:49;;;;;;;14.60;9.08;;;;;;;;;;1760423;81;21048;-60
2022/09/01 02:08:21;;;;;;;13.28;8.80;;;;;;;;;;1751309;81;21083;-60
2022/09/01 02:10:50;;;;;;;13.20;9.23;;;;;;;;;;1743576;81;21064;-60
2022/09/01 02:13:21;;;;;;;13.90;9.28;;;;;;;;;;1747449;81;21083;-60
2022/09/01 02:15:52;;;;;;;12.35;9.75;;;;;;;;;;1754867;81;21059;-60
2022/09/01 02:18:23;;;;;;;13.08;8.88;;;;;;;;;;1752754;81;21032;-60
2022/09/01 02:20:51;;;;;;;12.78;9.25;;;;;;;;;;1748536;81;21017;-60
2022/09/01 02:23:22;;;;;;;13.18;9.33;;;;;;;;;;1752079;81;21044;-60
2022/09/01 02:25:50;;;;;;;13.95;9.03;;;;;;;;;;1753303;81;21037;-60
2022/09/01 02:28:20;;;;;;;12.93;9.35;;;;;;;;;;1755515;81;21021;-60
2022/09/01 02:30:58;;;;;;;13.60;9.50;;;;;;;;;;1755259;81;21181;-60
2022/09/01 02:33:27;;;;;;;13.58;9.45;;;;;;;;;;1756763;81;21023;-59
2022/09/01 02:35:56;;;;;;;14.60;10.25;;;;;;;;;;1761381;80;21294;-59
2022/09/01 02:38:27;;;;;;;13.30;9.88;;;;;;;;;;1768702;80;21060;-60
2022/09/01 02:40:57;;;;;;;14.60;10.80;;;;;;;;;;1749671;81;21052;-60
2022/09/01 02:43:27;;;;;;;16.80;10.40;;;;;;;;;;1750358;81;21036;-60
2022/09/01 02:45:58;;;;;;;14.90;10.82;;;;;;;;;;1755074;81;21031;-60
2022/09/01 02:48:36;;;;;;;14.65;10.20;;;;;;;;;;1751005;81;21082;-60
2022/09/01 02:51:08;;;;;;;17.70;11.45;;;;;;;;;;1765324;81;21056;-60
2022/09/01 02:53:35;;;;;;;18.37;12.10;;;;;;;;;;1755975;81;21510;-60
2022/09/01 02:56:08;;;;;;;18.77;12.33;;;;;;;;;;1754776;80;21552;-60
2022/09/01 02:58:40;;;;;;;21.27;12.88;;;;;;;;;;1754820;81;21016;-61
2022/09/01 03:01:04;;;;;;;16.52;11.97;;;;;;;;;;1743480;82;21505;-59
2022/09/01 03:03:34;;;;;;;18.42;11.95;;;;;;;;;;1755429;79;21052;-60
2022/09/01 03:06:03;;;;;;;18.73;12.30;;;;;;;;;;1758023;81;21052;-61
2022/09/01 03:08:37;;;;;;;19.62;11.73;;;;;;;;;;1755274;80;21504;-61
2022/09/01 03:11:00;;;;;;;19.27;12.47;;;;;;;;;;1747315;80;21094;-60
2022/09/01 03:13:28;;;;;;;19.98;12.18;;;;;;;;;;1756047;80;21000;-60
2022/09/01 03:15:56;;;;;;;16.45;11.28;;;;;;;;;;1764068;80;21037;-59
2022/09/01 03:18:23;;;;;;;16.87;10.32;;;;;;;;;;1757596;81;21554;-60
2022/09/01 03:20:49;;;;;;;18.48;10.15;;;;;;;;;;1754632;81;21060;-60
2022/09/01 03:23:17;;;;;;;13.55;9.60;;;;;;;;;;1763759;81;21060;-60
2022/09/01 03:25:47;;;;;;;17.85;10.15;;;;;;;;;;1759819;81;21051;-60
2022/09/01 03:28:15;;;;;;;14.98;9.20;;;;;;;;;;1753817;80;21040;-60
2022/09/01 03:30:49;;;;;;;15.13;9.68;;;;;;;;;;1745094;81;21107;-60
2022/09/01 03:33:17;;;;;;;12.78;9.60;;;;;;;;;;1732531;82;21556;-60
2022/09/01 03:35:44;;;;;;;14.10;9.48;;;;;;;;;;1747175;81;21074;-60
2022/09/01 03:38:14;;;;;;;17.12;9.75;;;;;;;;;;1761739;80;21039;-60
2022/09/01 03:40:43;;;;;;;16.20;10.35;;;;;;;;;;1758823;80;20997;-60
2022/09/01 03:43:11;;;;;;;17.67;10.45;;;;;;;;;;1752626;81;21004;-60
2022/09/01 03:45:40;;;;;;;14.73;10.05;;;;;;;;;;1747461;81;21137;-60
2022/09/01 03:48:08;;;;;;;19.90;11.03;;;;;;;;;;1733721;80;21559;-60
2022/09/01 03:50:44;;;;;;;15.63;10.40;;;;;;;;;;1747562;80;21067;-60
2022/09/01 03:53:08;;;;;;;14.93;9.80;;;;;;;;;;1742341;81;21039;-59
2022/09/01 03:55:37;;;;;;;17.45;10.05;;;;;;;;;;1756805;80;21062;-60
2022/09/01 03:58:07;;;;;;;15.72;9.75;;;;;;;;;;1757977;81;21032;-60
2022/09/01 04:00:37;;;;;;;14.70;10.80;;;;;;;;;;1748777;81;21094;-60
2022/09/01 04:03:06;;;;;;;19.82;11.45;;;;;;;;;;1755976;80;21090;-60
2022/09/01 04:05:36;;;;;;;18.40;10.88;;;;;;;;;;1755362;81;21032;-60
2022/09/01 04:08:06;;;;;;;21.75;11.20;;;;;;;;;;1759410;80;21040;-60
2022/09/01 04:10:37;;;;;;;19.00;10.48;;;;;;;;;;1753438;81;21516;-60
2022/09/01 04:13:04;;;;;;;16.25;10.72;;;;;;;;;;1743633;81;21056;-60
2022/09/01 04:15:36;;;;;;;15.20;9.83;;;;;;;;;;1749801;81;21166;-60
2022/09/01 04:18:19;;;;;;;16.48;9.63;;;;;;;;;;1759150;81;21215;-60
2022/09/01 04:20:38;;;;;;;14.20;8.85;;;;;;;;;;1760879;80;21591;-60
2022/09/01 04:23:09;;;;;;;15.65;9.68;;;;;;;;;;1744961;81;21038;-60
2022/09/01 04:25:33;;;;;;;14.68;9.18;;;;;;;;;;1763776;81;21520;-60
2022/09/01 04:28:06;;;;;;;12.88;9.35;;;;;;;;;;1766803;81;21063;-61
2022/09/01 04:30:32;;;;;;;14.50;9.13;;;;;;;;;;1762132;80;21067;-61
2022/09/01 04:32:58;;;;;;;14.33;9.08;;;;;;;;;;1765875;80;21062;-60
2022/09/01 04:35:30;;;;;;;15.03;9.70;;;;;;;;;;1755024;80;21043;-61
2022/09/01 04:37:53;;;;;;;13.08;8.73;;;;;;;;;;1756700;81;21527;-60
2022/09/01 04:40:22;;;;;;;10.68;7.45;;;;;;;;;;1744287;81;21040;-63
2022/09/01 04:42:49;;;;;;;11.68;7.83;;;;;;;;;;1741276;81;21024;-60
2022/09/01 04:45:18;;;;;;;10.95;7.95;;;;;;;;;;1752444;80;21066;-60
2022/09/01 04:47:46;;;;;;;17.17;8.30;;;;;;;;;;1748773;80;20991;-61
2022/09/01 04:50:17;;;;;;;13.10;9.15;;;;;;;;;;1750173;81;21087;-61
2022/09/01 04:52:46;;;;;;;14.30;8.68;;;;;;;;;;1747421;81;20988;-62
2022/09/01 04:55:23;;;;;;;13.13;8.58;;;;;;;;;;1763727;80;21032;-60
2022/09/01 04:57:49;;;;;;;12.35;8.38;;;;;;;;;;1775411;80;21019;-60
2022/09/01 05:00:22;;;;;;;11.53;8.45;;;;;;;;;;1774055;80;21028;-60
2022/09/01 05:03:03;;;;;;;11.63;8.73;;;;;;;;;;1753536;80;21516;-62
2022/09/01 05:05:26;;;;;;;14.93;9.18;;;;;;;;;;1761665;80;21042;-61
2022/09/01 05:07:55;;;;;;;14.90;8.58;;;;;;;;;;1730946;80;21062;-61
2022/09/01 05:10:28;;;;;;;13.30;8.75;;;;;;;;;;1775404;80;21007;-62
2022/09/01 05:13:00;;;;;;;14.07;8.83;;;;;;;;;;1763607;80;21117;-61
2022/09/01 05:15:29;;;;;;;12.18;8.13;;;;;;;;;;1758006;80;21515;-61
2022/09/01 05:17:58;;;;;;;12.07;8.18;;;;;;;;;;1766857;80;21226;-61
2022/09/01 05:20:26;;;;;;;14.35;8.55;;;;;;;;;;1765286;80;21007;-60
2022/09/01 05:22:55;;;;;;;12.60;8.48;;;;;;;;;;1763574;80;21038;-60
2022/09/01 05:25:23;;;;;;;10.32;8.10;;;;;;;;;;1760408;80;21135;-60
2022/09/01 05:27:51;;;;;;;16.42;9.20;;;;;;;;;;1768526;80;21062;-61
2022/09/01 05:30:21;;;;;;;13.75;8.78;;;;;;;;;;1767910;80;20968;-62
2022/09/01 05:32:49;;;;;;;15.18;9.25;;;;;;;;;;1771284;80;21059;-61
2022/09/01 05:35:17;;;;;;;20.88;11.10;;;;;;;;;;1769875;80;21000;-61
2022/09/01 05:37:44;;;;;;;15.90;9.50;;;;;;;;;;1763831;80;21124;-60
2022/09/01 05:40:14;;;;;;;14.40;10.25;;;;;;;;;;1773493;80;21039;-60
2022/09/01 05:42:46;;;;;;;16.80;9.75;;;;;;;;;;1756317;80;21058;-60
2022/09/01 05:45:17;;;;;;;16.57;10.03;;;;;;;;;;1770064;80;21515;-62
2022/09/01 05:47:42;;;;;;;16.23;10.78;;;;;;;;;;1767064;80;21034;-61
2022/09/01 05:50:10;;;;;;;15.10;9.78;;;;;;;;;;1771074;80;21000;-61
2022/09/01 05:52:39;;;;;;;17.80;10.35;;;;;;;;;;1777652;80;21502;-61
2022/09/01 05:55:08;;;;;;;17.00;11.35;;;;;;;;;;1757563;80;21015;-61
2022/09/01 05:57:38;;;;;;;19.40;10.53;;;;;;;;;;1765169;80;21559;-61
2022/09/01 06:00:13;;;;;;;16.17;10.15;;;;;;;;;;1765581;80;21041;-60
2022/09/01 06:02:41;;;;;;;13.90;9.38;;;;;;;;;;1765468;80;21029;-61
2022/09/01 06:05:14;;;;;;;15.18;10.25;;;;;;;;;;1775452;80;21507;-61
2022/09/01 06:07:41;;;;;;;17.73;10.10;;;;;;;;;;1770751;80;20979;-61
2022/09/01 06:10:09;;;;;;;21.10;10.18;;;;;;;;;;1772393;80;20972;-61
2022/09/01 06:12:37;;;;;;;14.25;9.68;;;;;;;;;;1772265;80;21059;-61
2022/09/01 06:15:14;;;;;;;18.85;9.83;;;;;;;;;;1771703;80;21023;-60
2022/09/01 06:17:34;;;;;;;14.45;9.75;;;;;;;;;;1772542;79;20961;-61
2022/09/01 06:20:09;;;;;;;18.42;9.30;;;;;;;;;;1762163;81;21506;-61
2022/09/01 06:22:33;;;;;;;12.60;8.23;;;;;;;;;;1769042;80;21011;-60
2022/09/01 06:25:01;;;;;;;16.35;9.20;;;;;;;;;;1765581;80;20972;-61
2022/09/01 06:27:28;;;;;;;15.48;8.10;;;;;;;;;;1767762;80;21480;-61
2022/09/01 06:29:56;;;;;;;13.28;8.68;;;;;;;;;;1766894;80;21074;-61
2022/09/01 06:32:24;;;;;;;14.87;8.33;;;;;;;;;;1758549;80;20978;-60
2022/09/01 06:34:52;;;;;;;14.33;9.48;;;;;;;;;;1758042;80;21117;-61
2022/09/01 06:37:22;;;;;;;20.35;10.13;;;;;;;;;;1746792;81;21047;-61
2022/09/01 06:39:52;;;;;;;;;;;;;;;;;;1741911;81;21060;-61
2022/09/01 06:42:21;;;;;;;18.10;8.20;;;;;;;;;;1753506;81;20112;-60
2022/09/01 06:44:50;;;;;;;11.22;7.53;;;;;;;;;;1751597;80;21089;-61
2022/09/01 06:47:18;;;;;;;15.10;8.08;;;;;;;;;;1753661;81;21062;-61
2022/09/01 06:49:45;;;;;;;13.35;7.75;;;;;;;;;;1748971;80;21056;-61
2022/09/01 06:52:14;;;;;;;14.63;8.08;;;;;;;;;;1744126;80;21034;-60
2022/09/01 06:54:42;;;;;;;14.78;7.95;;;;;;;;;;1768116;80;21059;-62
2022/09/01 06:57:09;;;;;;;14.35;8.13;;;;;;;;;;1768814;80;21519;-60
2022/09/01 06:59:36;;;;;;;12.98;7.58;;;;;;;;;;1730787;81;21634;-61
2022/09/01 07:02:05;;;;;;;12.05;7.00;;;;;;;;;;1752106;80;21043;-61
2022/09/01 07:04:41;;;;;;;11.63;6.85;;;;;;;;;;1752395;81;21050;-61
2022/09/01 07:07:12;;;;;;;11.38;5.85;;;;;;;;;;1749082;81;21469;-60
2022/09/01 07:09:57;;;;;;;13.60;6.78;;;;;;;;;;1746726;80;21009;-61
2022/09/01 07:12:29;;;;;;;11.48;7.03;;;;;;;;;;1752899;80;21036;-60
2022/09/01 07:14:58;;;;;;;10.98;7.00;;;;;;;;;;1755077;81;20969;-60
2022/09/01 07:17:25;;;;;;;14.58;7.65;;;;;;;;;;1745183;81;21027;-61
2022/09/01 07:19:54;;;;;;;15.35;8.30;;;;;;;;;;1751615;80;21270;-60
2022/09/01 07:22:22;;;;;;;16.48;8.98;;;;;;;;;;1750835;81;20962;-61
2022/09/01 07:24:53;;;;;;;15.05;8.83;;;;;;;;;;1750150;80;21484;-61
2022/09/01 07:27:26;;;;;;;13.65;8.45;;;;;;;;;;1739781;80;21085;-61
2022/09/01 07:29:52;;;;;;;11.35;8.48;;;;;;;;;;1749834;81;20996;-60
2022/09/01 07:32:19;;;;;;;14.10;8.85;;;;;;;;;;1760121;80;21013;-62
2022/09/01 07:34:46;;;;;;;19.32;9.23;;;;;;;;;;1732171;81;21176;-62
2022/09/01 07:37:17;;;;;;;14.05;8.75;;;;;;;;;;1756181;80;21484;-61
2022/09/01 07:39:46;;;;;;;13.90;8.73;;;;;;;;;;1759246;80;21046;-62
2022/09/01 07:42:23;;;;;;;19.15;8.93;;;;;;;;;;1744431;80;21540;-61
2022/09/01 07:44:53;;;;;;;13.88;9.63;;;;;;;;;;1709960;80;21019;-61
2022/09/01 07:47:39;;;;;;;17.85;9.00;;;;;;;;;;1735257;80;21066;-61
2022/09/01 07:50:11;;;;;;;17.07;8.90;;;;;;;;;;1739905;79;21022;-60
2022/09/01 07:52:42;;;;;;;19.70;8.35;;;;;;;;;;1764769;80;21090;-61
2022/09/01 07:55:13;;;;;;;16.15;7.80;;;;;;;;;;1763476;79;21514;-61
2022/09/01 07:57:44;;;;;;;11.35;7.30;;;;;;;;;;1772165;80;21035;-60
2022/09/01 08:00:14;;;;;;;19.50;7.97;;;;;;;;;;1765798;80;21106;-61
2022/09/01 08:02:42;;;;;;;10.90;7.25;;;;;;;;;;1777250;80;21002;-60
2022/09/01 08:05:14;;;;;;;10.32;6.47;;;;;;;;;;1747940;81;21067;-60
2022/09/01 08:07:41;;;;;;;8.53;5.85;;;;;;;;;;1769123;80;21507;-61
2022/09/01 08:10:15;;;;;;;9.13;4.97;;;;;;;;;;1772169;80;20999;-61
2022/09/01 08:12:42;;;;;;;7.45;4.78;;;;;;;;;;1740124;80;21055;-61
2022/09/01 08:15:11;;;;;;;8.80;4.53;;;;;;;;;;1767943;80;21046;-62
2022/09/01 08:17:39;;;;;;;8.05;4.45;;;;;;;;;;1774887;80;21042;-60
2022/09/01 08:20:09;;;;;;;7.92;4.20;;;;;;;;;;1776093;80;21530;-60
2022/09/01 08:22:50;;;;;;;5.62;4.30;;;;;;;;;;1761625;80;21073;-61
2022/09/01 08:25:19;;;;;;;7.08;4.15;;;;;;;;;;1763804;80;20992;-62
2022/09/01 08:27:46;;;;;;;7.35;4.05;;;;;;;;;;1757538;80;21048;-62
2022/09/01 08:30:13;;;;;;;7.05;4.03;;;;;;;;;;1767750;81;21031;-61
2022/09/01 08:32:43;;;;;;;9.55;4.03;;;;;;;;;;1756680;80;21095;-61
2022/09/01 08:35:15;;;;;;;9.03;3.98;;;;;;;;;;1758665;80;21176;-61
2022/09/01 08:37:43;;;;;;;6.72;3.92;;;;;;;;;;1767823;80;21179;-62
2022/09/01 08:40:13;;;;;;;7.60;4.08;;;;;;;;;;1759520;80;21043;-61
2022/09/01 08:42:55;;;;;;;6.83;3.90;;;;;;;;;;1764078;80;21065;-61
2022/09/01 08:45:26;;;;;;;6.12;4.50;;;;;;;;;;1707186;81;21492;-62
2022/09/01 08:47:59;;;;;;;5.62;4.25;;;;;;;;;;1760752;80;21123;-61
2022/09/01 08:50:26;;;;;;;;;;;;;;;;;;1768748;80;21124;-61
2022/09/01 08:53:27;;;;;;;6.62;4.03;;;;;;;;;;1773565;80;20097;-62
2022/09/01 08:55:56;;;;;;;9.20;4.55;;;;;;;;;;1764231;80;21047;-62
2022/09/01 08:58:23;;;;;;;7.00;3.80;;;;;;;;;;1761323;80;20979;-61
2022/09/01 09:00:57;;;;;;;6.67;3.55;;;;;;;;;;1757581;80;21624;-61
2022/09/01 09:03:31;;;;;;;6.95;4.10;;;;;;;;;;1754337;81;21515;-61
2022/09/01 09:06:06;;;;;;;7.92;4.37;;;;;;;;;;1758685;80;21039;-61
2022/09/01 09:08:42;;;;;;;7.75;4.00;;;;;;;;;;1758189;81;21052;-60
2022/09/01 09:11:25;;;;;;;5.25;3.80;;;;;;;;;;1758684;80;21511;-60
2022/09/01 09:13:58;;;;;;;6.47;3.58;;;;;;;;;;1763093;80;21017;-61
2022/09/01 09:16:37;;;;;;;7.45;4.10;;;;;;;;;;1768107;81;21028;-61
2022/09/01 09:19:07;;;;;;;5.95;3.77;;;;;;;;;;1770272;80;21444;-60
2022/09/01 09:21:43;;;;;;;7.03;3.70;;;;;;;;;;1749795;81;21148;-61
2022/09/01 09:24:19;;;;;;;8.30;3.85;;;;;;;;;;1754576;81;21055;-62
2022/09/01 09:26:51;;;;;;;8.45;3.75;;;;;;;;;;1763800;80;21047;-65
2022/09/01 09:29:21;;;;;;;8.23;3.70;;;;;;;;;;1765370;81;21118;-64
2022/09/01 09:31:49;;;;;;;3.85;3.05;;;;;;;;;;1759563;80;21126;-61
2022/09/01 09:34:28;;;;;;;9.20;3.55;;;;;;;;;;1765834;80;21072;-61
2022/09/01 09:36:54;;;;;;;6.03;3.52;;;;;;;;;;1761799;80;21021;-61
2022/09/01 09:39:22;;;;;;;7.42;3.70;;;;;;;;;;1750824;80;21035;-61
2022/09/01 09:41:56;;;;;;;4.95;3.47;;;;;;;;;;1765963;80;21041;-61
2022/09/01 09:44:31;;;;;;;5.85;3.10;;;;;;;;;;1719517;83;21035;-61
2022/09/01 09:46:58;;;;;;;5.78;3.20;;;;;;;;;;1697337;83;21076;-61
2022/09/01 09:49:28;;;;;;;5.50;3.20;;;;;;;;;;1722156;82;21538;-62
2022/09/01 09:52:11;;;;;;;4.65;2.98;;;;;;;;;;1725877;82;21004;-60
2022/09/01 09:54:41;;;;;;;7.72;3.12;;;;;;;;;;1763364;80;21086;-61
2022/09/01 09:57:13;;;;;;;6.12;3.10;;;;;;;;;;1742492;81;21073;-61
2022/09/01 10:00:02;;;;;;;5.87;3.00;;;;;;;;;;1752377;81;21574;-61
2022/09/01 10:02:40;;;;;;;6.15;3.37;;;;;;;;;;1734326;81;21020;-61
2022/09/01 10:05:37;;;;;;;5.08;3.10;;;;;;;;;;1702835;82;21560;-61
2022/09/01 10:08:08;;;;;;;6.70;2.72;;;;;;;;;;1730851;80;21114;-61
2022/09/01 10:10:45;;;;;;;3.95;2.60;;;;;;;;;;1761216;80;21037;-62
2022/09/01 10:13:18;;;;;;;7.95;2.60;;;;;;;;;;1762666;80;21559;-62
2022/09/01 10:15:57;;;;;;;5.65;2.85;;;;;;;;;;1766873;80;21103;-62
2022/09/01 10:18:37;;;;;;;4.33;2.72;;;;;;;;;;1757863;80;21068;-62
2022/09/01 10:21:16;;;;;;;7.58;2.70;;;;;;;;;;1759217;80;21061;-61
2022/09/01 10:23:43;;;;;;;6.58;2.83;;;;;;;;;;1762139;80;21039;-61
2022/09/01 10:26:19;;;;;;;3.72;2.52;;;;;;;;;;1745985;80;21067;-61
2022/09/01 10:28:52;;;;;;;5.20;2.58;;;;;;;;;;1766178;80;21039;-61
2022/09/01 10:31:20;;;;;;;4.83;2.55;;;;;;;;;;1760083;80;21138;-62
2022/09/01 10:33:48;;;;;;;3.72;2.55;;;;;;;;;;1754428;81;21035;-61
2022/09/01 10:36:16;;;;;;;4.83;2.12;;;;;;;;;;1757895;80;21575;-61
2022/09/01 10:38:43;;;;;;;4.65;2.70;;;;;;;;;;1755447;80;21040;-62
2022/09/01 10:41:13;;;;;;;5.05;2.50;;;;;;;;;;1759952;81;21654;-62
2022/09/01 10:43:46;;;;;;;4.10;2.33;;;;;;;;;;1762053;80;21028;-62
2022/09/01 10:46:22;;;;;;;4.85;2.30;;;;;;;;;;1762282;80;21546;-62
2022/09/01 10:48:51;;;;;;;5.72;2.40;;;;;;;;;;1737448;80;21083;-61
2022/09/01 10:51:21;;;;;;;2.95;2.20;;;;;;;;;;1771707;80;21090;-61
2022/09/01 10:53:54;;;;;;;2.37;2.17;;;;;;;;;;1718465;82;21036;-62
2022/09/01 10:56:40;;;;;;;6.47;2.47;;;;;;;;;;1693766;82;21078;-62
2022/09/01 10:59:23;;;;;;;4.45;2.35;;;;;;;;;;1756818;80;21110;-62
2022/09/01 11:01:53;;;;;;;4.67;2.10;;;;;;;;;;1763746;80;21516;-61
2022/09/01 11:04:23;;;;;;;3.27;1.90;;;;;;;;;;1769206;80;21025;-62
2022/09/01 11:07:03;;;;;;;3.95;1.95;;;;;;;;;;1737086;81;21563;-60
2022/09/01 11:09:34;;;;;;;4.12;2.50;;;;;;;;;;1754677;80;21024;-60
2022/09/01 11:12:17;;;;;;;3.00;2.00;;;;;;;;;;1733355;82;21523;-60
2022/09/01 11:14:53;;;;;;;2.62;2.33;;;;;;;;;;1727556;82;21076;-60
2022/09/01 11:17:29;;;;;;;2.30;2.00;;;;;;;;;;1727928;82;21515;-60
2022/09/01 11:20:07;;;;;;;5.12;2.52;;;;;;;;;;1721851;82;21051;-60
2022/09/01 11:22:45;;;;;;;3.37;2.27;;;;;;;;;;1727288;82;21060;-60
2022/09/01 11:25:34;;;;;;;5.67;2.05;;;;;;;;;;1721197;82;21066;-60
2022/09/01 11:28:07;;;;;;;3.58;2.15;;;;;;;;;;1737237;81;21071;-60
2022/09/01 11:30:54;;;;;;;5.05;2.20;;;;;;;;;;1769176;80;21055;-60
2022/09/01 11:33:43;;;;;;;6.05;2.08;;;;;;;;;;1748910;80;21043;-60
2022/09/01 11:36:34;;;;;;;5.03;2.02;;;;;;;;;;1771505;80;21051;-60
2022/09/01 11:39:16;;;;;;;5.70;1.90;;;;;;;;;;1762592;80;22204;-60
2022/09/01 11:42:12;;;;;;;3.27;2.00;;;;;;;;;;1770691;80;21102;-60
2022/09/01 11:44:42;;;;;;;3.05;1.82;;;;;;;;;;1749876;81;21070;-61
2022/09/01 11:47:27;;;;;;;6.70;2.00;;;;;;;;;;1761898;80;21071;-60
2022/09/01 11:49:59;;;;;;;2.47;1.92;;;;;;;;;;1761411;80;21067;-61
2022/09/01 11:52:30;;;;;;;3.27;1.80;;;;;;;;;;1766228;80;21000;-61
2022/09/01 11:54:57;;;;;;;3.02;1.77;;;;;;;;;;1761642;80;21091;-61
2022/09/01 11:57:30;;;;;;;4.58;1.92;;;;;;;;;;1759355;80;21120;-61
2022/09/01 11:59:59;;;;;;;5.22;1.90;;;;;;;;;;1762839;80;21044;-60
2022/09/01 12:02:32;;;;;;;4.40;2.00;;;;;;;;;;1764861;81;21016;-61
2022/09/01 12:05:00;;;;;;;2.33;1.92;;;;;;;;;;1764348;80;21074;-60
2022/09/01 12:07:44;;;;;;;3.00;1.85;;;;;;;;;;1755415;81;21103;-60
2022/09/01 12:10:27;;;;;;;2.95;1.75;;;;;;;;;;1767826;81;21076;-60
2022/09/01 12:13:02;;;;;;;3.95;1.80;;;;;;;;;;1764730;80;21503;-60
2022/09/01 12:15:33;;;;;;;2.45;1.82;;;;;;;;;;1759867;80;21563;-60
2022/09/01 12:18:13;;;;;;;4.20;2.15;;;;;;;;;;1747222;81;21523;-61
2022/09/01 12:20:40;;;;;;;5.05;1.85;;;;;;;;;;1731482;81;21566;-61
2022/09/01 12:23:31;;;;;;;4.05;2.17;;;;;;;;;;1765208;80;21044;-61
2022/09/01 12:26:01;;;;;;;4.95;2.10;;;;;;;;;;1764562;80;21523;-60
2022/09/01 12:28:30;;;;;;;4.87;2.40;;;;;;;;;;1768558;80;21510;-61
2022/09/01 12:30:59;;;;;;;2.22;2.02;;;;;;;;;;1758957;81;21026;-61
2022/09/01 12:33:26;;;;;;;3.72;2.30;;;;;;;;;;1765889;80;21106;-60
2022/09/01 12:36:15;;;;;;;4.50;2.45;;;;;;;;;;1767587;80;21020;-62
2022/09/01 12:38:42;;;;;;;6.42;2.60;;;;;;;;;;1760059;80;21063;-63
2022/09/01 12:41:33;;;;;;;4.72;2.55;;;;;;;;;;1756833;80;21117;-62
2022/09/01 12:44:33;;;;;;;3.20;2.62;;;;;;;;;;1755326;81;21111;-62
2022/09/01 12:47:05;;;;;;;4.00;2.75;;;;;;;;;;1764936;80;21055;-62
2022/09/01 12:49:42;;;;;;;3.55;2.80;;;;;;;;;;1777592;80;21023;-62
2022/09/01 12:52:25;;;;;;;4.08;2.90;;;;;;;;;;1774592;80;21032;-62
2022/09/01 12:55:02;;;;;;;5.12;2.62;;;;;;;;;;1755360;80;21028;-62
2022/09/01 12:57:38;;;;;;;6.22;2.50;;;;;;;;;;1767266;80;21069;-59
2022/09/01 13:00:31;;;;;;;3.47;2.58;;;;;;;;;;1764673;80;21052;-62
2022/09/01 13:03:18;;;;;;;3.57;2.40;;;;;;;;;;1759967;81;21028;-59
2022/09/01 13:05:43;;;;;;;4.37;2.27;;;;;;;;;;1740921;81;22162;-61
2022/09/01 13:08:19;;;;;;;7.80;2.58;;;;;;;;;;1761388;81;21551;-60
2022/09/01 13:10:48;;;;;;;3.70;2.25;;;;;;;;;;1764465;80;21641;-61
2022/09/01 13:13:16;;;;;;;2.60;2.27;;;;;;;;;;1759273;80;21019;-62
2022/09/01 13:15:49;;;;;;;4.45;2.67;;;;;;;;;;1765270;80;21051;-60
2022/09/01 13:18:17;;;;;;;4.90;2.75;;;;;;;;;;1777510;80;21024;-60
2022/09/01 13:20:44;;;;;;;8.20;2.50;;;;;;;;;;1769660;80;21054;-60
2022/09/01 13:23:11;;;;;;;4.95;2.55;;;;;;;;;;1758367;81;21075;-62
2022/09/01 13:25:39;;;;;;;5.08;2.50;;;;;;;;;;1760897;80;20999;-61
2022/09/01 13:28:06;;;;;;;2.80;2.52;;;;;;;;;;1765287;80;21021;-60
2022/09/01 13:30:34;;;;;;;4.00;2.17;;;;;;;;;;1758079;81;21039;-59
2022/09/01 13:33:00;;;;;;;6.03;2.35;;;;;;;;;;1757289;80;21051;-60
2022/09/01 13:35:27;;;;;;;5.42;2.62;;;;;;;;;;1767521;80;21075;-60
2022/09/01 13:37:54;;;;;;;5.60;2.70;;;;;;;;;;1768050;81;21060;-60
2022/09/01 13:40:22;;;;;;;5.25;2.85;;;;;;;;;;1764169;80;21128;-61
2022/09/01 13:42:51;;;;;;;4.22;2.50;;;;;;;;;;1763438;80;21008;-60
2022/09/01 13:45:19;;;;;;;4.50;2.77;;;;;;;;;;1756339;80;21495;-61
2022/09/01 13:47:48;;;;;;;5.60;2.70;;;;;;;;;;1760587;80;21058;-60
2022/09/01 13:50:17;;;;;;;4.15;3.10;;;;;;;;;;1752996;80;21081;-61
2022/09/01 13:52:47;;;;;;;3.77;2.75;;;;;;;;;;1736367;81;21082;-61
2022/09/01 13:55:20;;;;;;;6.65;2.52;;;;;;;;;;1752233;81;21059;-60
2022/09/01 13:57:48;;;;;;;5.35;2.37;;;;;;;;;;1733607;82;21020;-60
2022/09/01 14:00:19;;;;;;;5.53;2.52;;;;;;;;;;1704302;83;21127;-60
2022/09/01 14:02:51;;;;;;;3.45;2.47;;;;;;;;;;1724961;82;21049;-62
2022/09/01 14:05:20;;;;;;;3.33;2.42;;;;;;;;;;1756323;80;21028;-61
2022/09/01 14:07:48;;;;;;;4.53;2.37;;;;;;;;;;1765614;80;21075;-61
2022/09/01 14:10:16;;;;;;;4.10;2.22;;;;;;;;;;1769034;80;21036;-61
2022/09/01 14:12:44;;;;;;;4.20;2.40;;;;;;;;;;1754277;80;21011;-61
2022/09/01 14:15:13;;;;;;;4.10;2.50;;;;;;;;;;1750829;81;21098;-61
2022/09/01 14:17:39;;;;;;;4.08;2.12;;;;;;;;;;1763387;80;20995;-61
2022/09/01 14:20:11;;;;;;;3.02;2.02;;;;;;;;;;1755298;80;21059;-61
2022/09/01 14:22:39;;;;;;;4.83;2.10;;;;;;;;;;1730261;82;21520;-61
2022/09/01 14:25:09;;;;;;;4.55;2.02;;;;;;;;;;1734792;82;21044;-61
2022/09/01 14:27:37;;;;;;;4.75;2.10;;;;;;;;;;1730495;81;21038;-61
2022/09/01 14:30:06;;;;;;;5.90;2.40;;;;;;;;;;1726679;82;21157;-61
2022/09/01 14:32:33;;;;;;;5.17;2.50;;;;;;;;;;1732002;83;21025;-61
2022/09/01 14:35:00;;;;;;;4.55;2.67;;;;;;;;;;1697347;83;21595;-60
2022/09/01 14:37:28;;;;;;;3.83;2.60;;;;;;;;;;1724123;82;21501;-60
2022/09/01 14:39:56;;;;;;;6.08;2.77;;;;;;;;;;1765538;80;21040;-61
2022/09/01 14:42:24;;;;;;;6.15;2.60;;;;;;;;;;1777242;80;21164;-61
2022/09/01 14:44:51;;;;;;;3.60;2.42;;;;;;;;;;1775909;80;21468;-62
2022/09/01 14:47:18;;;;;;;3.80;2.65;;;;;;;;;;1755237;81;21035;-61
2022/09/01 14:49:45;;;;;;;5.05;2.52;;;;;;;;;;1754976;80;21027;-61
2022/09/01 14:52:13;;;;;;;3.83;2.47;;;;;;;;;;1743003;81;21000;-61
2022/09/01 14:54:41;;;;;;;5.80;2.65;;;;;;;;;;1763648;80;21044;-61
2022/09/01 14:57:08;;;;;;;6.65;2.70;;;;;;;;;;1762398;81;21523;-61
2022/09/01 14:59:36;;;;;;;5.25;2.75;;;;;;;;;;1763206;80;21568;-61
2022/09/01 15:02:04;;;;;;;4.75;2.70;;;;;;;;;;1760387;80;21066;-60
2022/09/01 15:04:32;;;;;;;7.53;2.80;;;;;;;;;;1759032;80;21555;-61